Virtual Airlines Manager

 METAR AND TAF INFORMATION
METAR FOR GOOY
ADDS - METARS form results

(0428 UTC 23 October 2017)
Data provider http://aviationweather.gov/adds/metars/
 
METAR text: GOOY 230400Z 02009KT CAVOK 28/24 Q1011 NOSIG
Conditions at: GOOY (DAKAR/YOFF , SN) observed 0400 UTC 23 October 2017
Temperature: 28.0°C (82°F)
Dewpoint: 24.0°C (75°F) [RH = 79%]
Pressure (altimeter): 29.85 inches Hg (1011.0 mb)
Winds: from the NNE (20 degrees) at 10 MPH (9 knots; 4.7 m/s)
Visibility: 6 or more miles (10+ km)
Ceiling: ceiling and visibility are OK
Clouds: unknown
Weather: no significant weather observed at this time

METAR text: GOOY 230330Z 01009KT CAVOK 28/24 Q1011 NOSIG
Conditions at: GOOY (DAKAR/YOFF , SN) observed 0330 UTC 23 October 2017
Temperature: 28.0°C (82°F)
Dewpoint: 24.0°C (75°F) [RH = 79%]
Pressure (altimeter): 29.85 inches Hg (1011.0 mb)
Winds: from the N (10 degrees) at 10 MPH (9 knots; 4.7 m/s)
Visibility: 6 or more miles (10+ km)
Ceiling: ceiling and visibility are OK
Clouds: unknown
Weather: no significant weather observed at this time

Forecast for: GOOY (DAKAR/YOFF , SN)
Text: TAF GOOY 222330Z 2300/2406 36008KT CAVOK
Forecast period: 0000 UTC 23 October 2017 to 0600 UTC 24 October 2017
Forecast type: FROM: standard forecast or significant change
Winds: from the N (360 degrees) at 9 MPH (8 knots; 4.2 m/s)
Visibility: 6 or more miles (10+ km)
Clouds: not forecast
Weather: NSW  (no significant weather)

 AIRPORT MAP

 RUNWAY INFORMATION
Runway 03 Runway length 4921 ft Runway width 98 ft
Runway elevation 63 ft Runway displaced threshold 0 ft Runway heading 23
Runway 21 Runway length 4921 ft Runway width 98 ft
Runway elevation 56 ft Runway displaced threshold 0 ft Runway heading 203
Runway 18 Runway length 11450 ft Runway width 148 ft
Runway elevation 64 ft Runway displaced threshold 525 ft Runway heading 173
Runway 36 Runway length 11450 ft Runway width 148 ft
Runway elevation 75 ft Runway displaced threshold 0 ft Runway heading 353

 AIRPORT FREQUENCIES
Type APP Name DAKAR CON Frequency 120.5 MHZ
Type INFO Name DAKAR INFO Frequency 129.5 MHZ
Type INFO Name DAKAR INFO Frequency 345.2 MHZ
Type TWR Name DAKAR TWR Frequency 118.1 MHZ

 AIRPORT NEAR NAVIGATION AIDS
Type NDB Name Dakar Frequency 323 KHZ
Type VOR-DME Name Dakar Frequency 113100 KHZ



Powered by Virtual Airlines Manager [v2.6.2]